Time;durP1;ratioP1;P1;durP2;ratioP2;P2;SDS_P1;SDS_P2;PMS_P1;PMS_P2;Temp;Humidity;BMP_temperature;BMP_pressure;BME280_temperature;BME280_humidity;BME280_pressure;Samples;Min_cycle;Max_cycle;Signal;HPM_P1;HPM_P2
2021/05/02 09:05:42;;;;;;;20.38;14.25;;;10.80;99.90;;;;;;12092640;27;20375;-79
2021/05/02 09:17:37;;;;;;;18.40;10.18;;;11.90;99.90;;;;;;12050467;27;20369;-79
2021/05/02 09:23:34;;;;;;;17.42;9.80;;;11.80;99.90;;;;;;12082232;27;20076;-78
2021/05/02 09:29:22;;;;;;;25.48;12.38;;;12.10;99.40;;;;;;12063524;28;20055;-78
2021/05/02 09:35:22;;;;;;;25.23;12.57;;;12.10;99.10;;;;;;12075274;27;20502;-79
2021/05/02 09:41:13;;;;;;;48.80;26.35;;;12.20;97.80;;;;;;12078580;28;20056;-84
2021/05/02 09:47:21;;;;;;;27.15;13.85;;;12.60;98.50;;;;;;12082215;28;20589;-79
2021/05/02 09:53:08;;;;;;;21.98;12.80;;;13.10;97.60;;;;;;12076378;27;20051;-77
2021/05/02 09:58:54;;;;;;;19.60;12.55;;;13.30;94.40;;;;;;12073407;28;20075;-77
2021/05/02 10:04:44;;;;;;;19.25;12.65;;;13.80;94.90;;;;;;12084645;27;20055;-78
2021/05/02 10:10:34;;;;;;;20.50;12.88;;;13.80;93.90;;;;;;12055475;28;20427;-77
2021/05/02 10:16:20;;;;;;;18.42;12.32;;;13.60;93.40;;;;;;12052302;28;20056;-78
2021/05/02 10:22:09;;;;;;;17.70;10.68;;;13.80;91.70;;;;;;12063472;28;20049;-76
2021/05/02 10:27:56;;;;;;;18.10;11.25;;;14.20;89.20;;;;;;12035456;28;20779;-79
2021/05/02 10:33:45;;;;;;;19.90;12.30;;;13.80;89.40;;;;;;12012040;28;20052;-79
2021/05/02 10:39:52;;;;;;;19.40;12.55;;;13.50;90.10;;;;;;12033947;28;20139;-79
2021/05/02 10:45:45;;;;;;;17.50;10.43;;;13.60;91.20;;;;;;12035927;28;20049;-79
2021/05/02 10:51:34;;;;;;;14.43;9.70;;;13.40;86.90;;;;;;12034145;28;20061;-79
2021/05/02 10:57:33;;;;;;;20.73;11.00;;;13.60;85.00;;;;;;12032243;28;20044;-79
2021/05/02 11:03:52;;;;;;;19.45;11.63;;;13.70;85.80;;;;;;12038122;28;20056;-77
2021/05/02 11:10:09;;;;;;;14.60;9.82;;;14.00;87.60;;;;;;12019251;28;20055;-76
2021/05/02 11:15:55;;;;;;;12.20;6.40;;;14.40;83.20;;;;;;12033132;28;20049;-79
2021/05/02 11:22:07;;;;;;;10.15;6.70;;;14.00;76.70;;;;;;12008082;28;20048;-77
2021/05/02 11:34:07;;;;;;;11.13;7.13;;;14.20;90.00;;;;;;11999619;28;20052;-78
2021/05/02 11:39:54;;;;;;;10.88;8.20;;;14.60;88.90;;;;;;12017015;28;20048;-77
2021/05/02 11:45:48;;;;;;;10.02;6.57;;;14.70;83.30;;;;;;12016842;28;20052;-77
2021/05/02 11:51:35;;;;;;;10.05;7.63;;;14.90;74.90;;;;;;11998839;28;20190;-80
2021/05/02 11:57:23;;;;;;;11.77;7.65;;;15.00;75.50;;;;;;12010260;28;20604;-79
2021/05/02 12:03:10;;;;;;;14.18;8.52;;;14.90;71.90;;;;;;11993717;28;20062;-77
2021/05/02 12:08:59;;;;;;;611.10;370.38;;;15.20;70.40;;;;;;11992301;28;20428;-84
2021/05/02 12:15:38;;;;;;;17.17;11.27;;;15.40;72.10;;;;;;11965892;27;20045;-87
2021/05/02 12:21:30;;;;;;;14.82;9.32;;;16.00;72.50;;;;;;11946018;28;20431;-78
2021/05/02 12:27:24;;;;;;;10.75;7.60;;;16.20;72.70;;;;;;11965594;28;20059;-79
2021/05/02 12:40:06;;;;;;;16.88;9.13;;;15.60;71.50;;;;;;11932978;28;20054;-79
2021/05/02 12:52:12;;;;;;;16.52;9.98;;;15.00;72.70;;;;;;11940689;28;20136;-79
2021/05/02 12:58:01;;;;;;;10.52;8.02;;;15.20;73.60;;;;;;11931416;28;20137;-79
2021/05/02 13:03:54;;;;;;;13.98;9.45;;;15.70;74.00;;;;;;11955097;28;20064;-79
2021/05/02 13:09:43;;;;;;;14.23;9.80;;;16.40;72.30;;;;;;11942625;28;20088;-78
2021/05/02 13:15:44;;;;;;;12.65;8.68;;;16.00;71.70;;;;;;11995103;27;20083;-80
2021/05/02 13:21:31;;;;;;;13.57;9.35;;;15.90;74.10;;;;;;12039423;28;20060;-79
2021/05/02 13:27:39;;;;;;;13.23;8.95;;;16.00;72.00;;;;;;12028417;28;20059;-78
2021/05/02 13:33:30;;;;;;;12.32;8.38;;;15.50;71.50;;;;;;12031726;28;20619;-78
2021/05/02 13:39:21;;;;;;;11.57;7.60;;;14.80;74.40;;;;;;12026374;28;20068;-79
2021/05/02 13:45:10;;;;;;;12.30;7.25;;;15.20;76.60;;;;;;12024714;28;20055;-78
2021/05/02 13:50:57;;;;;;;7.18;5.75;;;16.00;71.10;;;;;;12017176;28;20114;-78
2021/05/02 13:56:43;;;;;;;9.43;5.90;;;16.70;68.70;;;;;;12027588;28;20064;-78
2021/05/02 14:02:36;;;;;;;10.07;6.43;;;16.60;65.70;;;;;;12033314;28;20040;-78
2021/05/02 14:08:22;;;;;;;9.95;7.10;;;16.10;65.40;;;;;;12025991;28;20602;-79
2021/05/02 14:14:09;;;;;;;484.02;302.00;;;15.80;68.10;;;;;;12043776;28;20726;-81
2021/05/02 14:19:56;;;;;;;9.13;6.05;;;15.40;70.70;;;;;;12037491;28;20060;-78
2021/05/02 14:25:47;;;;;;;8.45;5.88;;;15.20;71.50;;;;;;12034813;28;20064;-79
2021/05/02 14:31:33;;;;;;;7.22;5.22;;;15.10;69.20;;;;;;12007691;28;20053;-78
2021/05/02 14:37:25;;;;;;;11.07;7.07;;;15.00;69.50;;;;;;12005188;28;20048;-79
2021/05/02 14:43:12;;;;;;;14.80;9.07;;;14.20;81.30;;;;;;12003795;28;20141;-79
2021/05/02 14:48:59;;;;;;;15.35;10.50;;;13.50;88.10;;;;;;12025491;28;20076;-78
2021/05/02 14:54:48;;;;;;;13.32;9.90;;;12.80;92.60;;;;;;12041896;28;20837;-79
2021/05/02 15:00:35;;;;;;;23.52;13.98;;;13.30;98.30;;;;;;12036812;28;20053;-78
2021/05/02 15:06:21;;;;;;;13.07;8.50;;;14.00;99.90;;;;;;12036047;28;20151;-79
2021/05/02 15:12:09;;;;;;;10.75;8.45;;;14.30;97.10;;;;;;12035000;28;20451;-79
2021/05/02 15:17:56;;;;;;;11.43;8.45;;;14.20;96.70;;;;;;12029176;28;20107;-77
2021/05/02 15:23:42;;;;;;;11.80;7.97;;;14.70;97.00;;;;;;12036906;28;20044;-81
2021/05/02 15:29:32;;;;;;;13.70;9.15;;;14.50;91.50;;;;;;12042306;28;20049;-80
2021/05/02 15:35:18;;;;;;;10.20;7.85;;;15.20;93.30;;;;;;12031903;28;20047;-79
2021/05/02 15:41:05;;;;;;;12.55;8.90;;;16.00;92.50;;;;;;12035663;28;20231;-83
2021/05/02 15:46:58;;;;;;;14.13;8.23;;;16.40;90.80;;;;;;12014990;28;20112;-81
2021/05/02 15:52:47;;;;;;;10.05;7.38;;;16.60;87.30;;;;;;12023776;28;20060;-80
2021/05/02 15:58:34;;;;;;;8.63;6.85;;;17.00;86.90;;;;;;12034759;28;20052;-79
2021/05/02 16:04:21;;;;;;;8.75;6.65;;;17.30;82.80;;;;;;12033376;28;20060;-79
2021/05/02 16:10:09;;;;;;;15.45;9.50;;;18.00;75.30;;;;;;12036397;28;20109;-79
2021/05/02 16:16:01;;;;;;;8.38;6.97;;;19.60;72.40;;;;;;12009241;28;20041;-79
2021/05/02 16:21:49;;;;;;;7.10;6.10;;;21.80;61.40;;;;;;12026981;28;20044;-81
2021/05/02 16:27:36;;;;;;;8.80;6.75;;;23.20;57.40;;;;;;12028587;28;20055;-81
2021/05/02 16:33:23;;;;;;;9.35;7.38;;;24.60;53.70;;;;;;12027118;28;20059;-81
2021/05/02 16:39:11;;;;;;;7.93;7.13;;;25.30;49.20;;;;;;12026001;28;20048;-81
2021/05/02 16:44:58;;;;;;;7.18;5.63;;;26.00;47.90;;;;;;12030713;28;20064;-81
2021/05/02 16:50:45;;;;;;;10.40;7.20;;;27.00;45.60;;;;;;12019061;28;20125;-82
2021/05/02 16:56:32;;;;;;;9.45;8.13;;;27.70;43.90;;;;;;12032374;28;20079;-79
2021/05/02 17:02:37;;;;;;;11.93;9.48;;;27.30;43.60;;;;;;12035263;28;20170;-84
2021/05/02 17:08:26;;;;;;;264.13;164.45;;;23.70;47.60;;;;;;11977398;28;20059;-83
2021/05/02 17:14:13;;;;;;;11.40;8.77;;;21.10;52.80;;;;;;11973654;28;20041;-81
2021/05/02 17:20:00;;;;;;;9.38;6.85;;;21.20;54.00;;;;;;11991942;28;20052;-80
2021/05/02 17:25:46;;;;;;;7.88;6.88;;;22.60;50.40;;;;;;11980479;28;20049;-79
2021/05/02 17:32:19;;;;;;;8.52;7.07;;;23.50;49.00;;;;;;11977411;28;20049;-81
2021/05/02 17:38:11;;;;;;;7.80;6.63;;;23.80;47.80;;;;;;11992867;28;20570;-81
2021/05/02 17:43:58;;;;;;;7.90;6.63;;;24.70;45.80;;;;;;11996281;28;20060;-82
2021/05/02 17:49:58;;;;;;;7.68;6.22;;;25.00;45.30;;;;;;11988681;28;20951;-83
2021/05/02 17:55:46;;;;;;;8.82;6.75;;;24.20;45.10;;;;;;12017366;28;20057;-81
2021/05/02 18:01:32;;;;;;;9.90;6.72;;;22.30;48.30;;;;;;12010069;28;20057;-80
2021/05/02 18:07:18;;;;;;;8.55;6.90;;;20.80;51.40;;;;;;12015107;28;20056;-81
2021/05/02 18:13:06;;;;;;;7.97;6.47;;;20.30;51.60;;;;;;11992505;28;20061;-80
2021/05/02 18:18:53;;;;;;;8.75;6.75;;;19.30;54.40;;;;;;11991946;28;20072;-80
2021/05/02 18:24:39;;;;;;;9.02;6.40;;;19.80;54.30;;;;;;11983804;28;20072;-79
2021/05/02 18:30:26;;;;;;;7.70;6.07;;;20.70;50.80;;;;;;11986948;28;20045;-79
2021/05/02 18:36:13;;;;;;;7.82;5.85;;;20.50;52.30;;;;;;11993438;28;20532;-81
2021/05/02 18:42:02;;;;;;;7.78;5.57;;;19.40;54.20;;;;;;11949137;28;20128;-80
2021/05/02 18:47:58;;;;;;;8.88;4.85;;;18.30;57.40;;;;;;11943873;28;20773;-81
2021/05/02 18:53:49;;;;;;;7.95;5.40;;;17.30;60.00;;;;;;11950792;28;20052;-80
2021/05/02 18:59:37;;;;;;;8.27;4.93;;;16.40;62.50;;;;;;11985167;28;20072;-79
2021/05/02 19:05:24;;;;;;;8.20;5.88;;;15.70;64.60;;;;;;11975820;28;20507;-79
2021/05/02 19:11:11;;;;;;;6.68;5.43;;;15.30;66.90;;;;;;11993230;28;20064;-81
2021/05/02 19:17:07;;;;;;;7.75;5.30;;;14.90;68.20;;;;;;11983175;28;20057;-86
2021/05/02 19:23:25;;;;;;;8.65;6.07;;;14.60;69.20;;;;;;11886871;28;20077;-82
2021/05/02 19:41:54;;;;;;;6.50;5.40;;;14.00;71.20;;;;;;11868089;28;20056;-79
2021/05/02 19:47:40;;;;;;;8.45;5.60;;;13.80;72.60;;;;;;11927232;28;20052;-78
2021/05/02 19:53:33;;;;;;;8.50;6.05;;;13.80;73.20;;;;;;11984168;28;20077;-79
2021/05/02 19:59:22;;;;;;;9.15;6.18;;;13.70;73.50;;;;;;11953104;28;20408;-85
2021/05/02 20:05:11;;;;;;;8.70;6.07;;;13.60;73.90;;;;;;11980509;28;20123;-85
2021/05/02 20:10:57;;;;;;;6.90;5.72;;;13.50;74.10;;;;;;11986976;28;20048;-80
2021/05/02 20:16:46;;;;;;;9.40;6.72;;;13.50;75.10;;;;;;11980365;28;20063;-79
2021/05/02 20:22:34;;;;;;;7.68;6.00;;;13.50;74.80;;;;;;11986079;28;20096;-78
2021/05/02 20:28:21;;;;;;;9.35;6.57;;;13.30;74.70;;;;;;11972271;28;20045;-80
2021/05/02 20:34:09;;;;;;;13.93;6.90;;;13.20;74.80;;;;;;11983693;28;20111;-79
2021/05/02 20:39:56;;;;;;;11.77;7.70;;;13.10;75.90;;;;;;11981027;28;20438;-78
2021/05/02 20:45:42;;;;;;;9.68;7.18;;;13.00;76.20;;;;;;11983428;28;20542;-80
2021/05/02 20:51:30;;;;;;;12.27;8.73;;;12.90;77.00;;;;;;11978288;28;20057;-80
2021/05/02 20:57:16;;;;;;;10.77;8.13;;;12.80;77.50;;;;;;11985284;28;20053;-79
2021/05/02 21:03:08;;;;;;;13.55;8.70;;;12.70;77.80;;;;;;11983049;28;20042;-79
2021/05/02 21:08:57;;;;;;;13.30;8.77;;;12.70;78.10;;;;;;11983794;28;20049;-78
2021/05/02 21:14:43;;;;;;;15.63;9.73;;;12.60;79.30;;;;;;11935901;28;20042;-78
2021/05/02 21:20:30;;;;;;;14.68;9.05;;;12.50;79.60;;;;;;11957507;28;20049;-79
2021/05/02 21:26:17;;;;;;;14.07;9.50;;;12.50;80.50;;;;;;11979370;28;20123;-79
2021/05/02 21:32:04;;;;;;;16.20;9.55;;;12.50;80.70;;;;;;11978035;28;20494;-78
2021/05/02 21:37:51;;;;;;;14.70;9.32;;;12.50;80.60;;;;;;11975806;28;20102;-78
2021/05/02 21:43:38;;;;;;;15.63;9.88;;;12.60;80.50;;;;;;11980599;28;20053;-78
2021/05/02 21:49:26;;;;;;;16.58;10.95;;;12.50;81.10;;;;;;11977965;28;20129;-79
2021/05/02 21:55:12;;;;;;;17.58;10.55;;;12.50;81.00;;;;;;11978244;28;20127;-77
2021/05/02 22:01:00;;;;;;;15.93;10.77;;;12.40;81.40;;;;;;11968833;28;21021;-78
2021/05/02 22:06:47;;;;;;;15.60;10.65;;;12.30;81.00;;;;;;11980521;28;20061;-78
2021/05/02 22:12:33;;;;;;;16.98;10.90;;;12.30;81.10;;;;;;11971178;28;20057;-79
2021/05/02 22:18:25;;;;;;;17.35;11.65;;;12.30;81.60;;;;;;11962686;28;20064;-77
2021/05/02 22:24:13;;;;;;;17.42;11.95;;;12.30;82.00;;;;;;11987016;28;20064;-78
2021/05/02 22:30:00;;;;;;;16.27;10.63;;;12.20;81.70;;;;;;11985620;28;20062;-78
2021/05/02 22:35:47;;;;;;;17.20;12.25;;;12.10;81.70;;;;;;11987720;28;20041;-78
2021/05/02 22:41:34;;;;;;;18.63;13.23;;;11.90;82.50;;;;;;11989515;28;20064;-78
2021/05/02 22:47:21;;;;;;;19.52;12.73;;;11.80;83.70;;;;;;11967951;28;20053;-78
2021/05/02 22:53:10;;;;;;;17.52;12.90;;;11.90;84.30;;;;;;11949530;28;20061;-79
2021/05/02 22:58:56;;;;;;;21.75;13.35;;;11.90;83.60;;;;;;11976649;28;20132;-79
2021/05/02 23:04:42;;;;;;;18.33;12.88;;;12.00;84.80;;;;;;11986563;28;20045;-79
2021/05/02 23:10:30;;;;;;;19.98;13.48;;;11.90;84.50;;;;;;12002133;28;20119;-77
2021/05/02 23:16:16;;;;;;;18.38;12.98;;;11.80;85.40;;;;;;11991989;28;20040;-78
2021/05/02 23:22:03;;;;;;;18.25;12.90;;;11.80;86.50;;;;;;11998931;28;20061;-79
2021/05/02 23:27:50;;;;;;;18.50;13.77;;;11.80;86.50;;;;;;11986458;28;20088;-79
2021/05/02 23:33:37;;;;;;;19.20;13.73;;;11.90;86.50;;;;;;11992636;28;20536;-78
2021/05/02 23:39:24;;;;;;;20.98;14.02;;;11.90;86.50;;;;;;11989402;28;20049;-78
2021/05/02 23:45:12;;;;;;;20.48;14.18;;;11.80;86.70;;;;;;11988553;28;20065;-78
2021/05/02 23:50:58;;;;;;;23.60;14.05;;;11.80;87.60;;;;;;11988273;28;20519;-78
2021/05/02 23:56:44;;;;;;;23.05;13.82;;;11.80;88.50;;;;;;11977450;28;20128;-78
